createdAt,value
2023-05-03T00:00:03.279Z,5.6462
2023-05-03T00:01:04.840Z,8.6615
2023-05-03T00:02:06.727Z,13.5231
2023-05-03T00:03:08.325Z,15.6462
2023-05-03T00:04:10.050Z,8.9538
2023-05-03T00:05:11.809Z,4.4615
2023-05-03T00:06:13.487Z,4.2923
2023-05-03T00:07:15.182Z,6.4462
2023-05-03T00:08:16.908Z,10.8308
2023-05-03T00:09:18.624Z,15.8154
2023-05-03T00:10:20.353Z,12.1538
2023-05-03T00:11:22.061Z,5.1538
2023-05-03T00:12:23.780Z,3.3692
2023-05-03T00:13:25.502Z,4.6769
2023-05-03T00:14:27.241Z,7.9538
2023-05-03T00:15:28.979Z,13.3538
2023-05-03T00:16:30.693Z,16.3231
2023-05-03T00:17:32.387Z,11.6000
2023-05-03T00:18:34.077Z,9.0154
2023-05-03T00:19:35.808Z,9.4308
2023-05-03T00:20:37.530Z,11.8923
2023-05-03T00:21:39.235Z,16.0615
2023-05-03T00:22:40.962Z,18.2923
2023-05-03T00:23:42.673Z,11.0000
2023-05-03T00:24:44.412Z,4.6769
2023-05-03T00:25:46.119Z,3.5077
2023-05-03T00:26:47.843Z,4.7077
2023-05-03T00:27:49.564Z,8.5385
2023-05-03T00:28:51.275Z,13.9538
2023-05-03T00:29:53.003Z,12.5538
2023-05-03T00:30:54.735Z,5.8154
2023-05-03T00:31:56.458Z,3.6923
2023-05-03T00:32:58.190Z,4.7846
2023-05-03T00:33:59.896Z,7.7385
2023-05-03T00:35:01.609Z,12.8154
2023-05-03T00:36:03.324Z,15.8615
2023-05-03T00:37:05.043Z,10.2462
2023-05-03T00:38:06.759Z,6.6000
2023-05-03T00:39:08.571Z,6.3538
2023-05-03T00:40:10.209Z,8.5385
2023-05-03T00:41:11.930Z,12.6923
2023-05-03T00:42:13.643Z,16.6308
2023-05-03T00:43:15.363Z,11.4769
2023-05-03T00:44:17.078Z,5.6615
2023-05-03T00:45:18.801Z,4.1231
2023-05-03T00:46:20.606Z,5.4462
2023-05-03T00:47:22.275Z,9.1077
2023-05-03T00:48:23.953Z,14.1692
2023-05-03T00:49:25.694Z,12.7846
2023-05-03T00:50:27.390Z,6.5231
2023-05-03T00:51:29.120Z,4.2923
2023-05-03T00:52:30.814Z,5.1846
2023-05-03T00:53:32.534Z,8.1385
2023-05-03T00:54:34.252Z,13.0000
2023-05-03T00:55:35.971Z,14.2308
2023-05-03T00:56:47.866Z,7.4923
2023-05-03T00:57:39.377Z,3.9692
2023-05-03T00:58:41.101Z,4.2154
2023-05-03T00:59:42.807Z,6.4769
2023-05-03T01:00:44.537Z,11.0000
2023-05-03T01:01:46.262Z,14.9077
2023-05-03T01:02:48.015Z,9.8154
2023-05-03T01:03:49.763Z,4.8000
2023-05-03T01:04:51.402Z,4.0615
2023-05-03T01:05:53.150Z,5.6923
2023-05-03T01:06:54.887Z,9.5385
2023-05-03T01:07:56.568Z,14.4769
2023-05-03T01:08:58.303Z,12.2000
2023-05-03T01:10:00.273Z,7.1231
2023-05-03T01:11:01.969Z,5.3846
2023-05-03T01:12:03.447Z,6.6615
2023-05-03T01:13:05.140Z,9.9077
2023-05-03T01:14:06.861Z,14.4308
2023-05-03T01:15:08.612Z,12.9077
2023-05-03T01:16:10.339Z,6.3538
2023-05-03T01:17:12.007Z,3.9385
2023-05-03T01:18:13.821Z,4.3692
2023-05-03T01:19:15.462Z,7.0923
2023-05-03T01:20:17.174Z,11.7846
2023-05-03T01:21:18.974Z,12.7538
2023-05-03T01:22:20.669Z,5.6154
2023-05-03T01:23:22.346Z,2.6769
2023-05-03T01:24:24.074Z,2.8615
2023-05-03T01:25:25.785Z,4.4154
2023-05-03T01:26:27.603Z,8.7231
2023-05-03T01:27:29.236Z,13.8769
2023-05-03T01:28:30.955Z,10.6000
2023-05-03T01:29:32.668Z,5.1538
2023-05-03T01:30:34.390Z,4.3231
2023-05-03T01:31:36.178Z,6.1077
2023-05-03T01:32:37.824Z,9.7077
2023-05-03T01:33:39.540Z,14.8769
2023-05-03T01:34:41.254Z,14.7385
2023-05-03T01:35:42.984Z,8.2615
2023-05-03T01:36:44.681Z,5.4308
2023-05-03T01:37:46.406Z,6.0923
2023-05-03T01:38:48.138Z,8.8923
2023-05-03T01:39:49.859Z,13.6000
2023-05-03T01:40:51.580Z,15.9538
2023-05-03T01:41:53.299Z,9.1385
2023-05-03T01:42:55.026Z,3.9077
2023-05-03T01:43:56.752Z,3.5231
2023-05-03T01:44:58.443Z,5.3385
2023-05-03T01:46:00.245Z,9.4923
2023-05-03T01:47:01.878Z,15.0615
2023-05-03T01:48:03.631Z,13.6308
2023-05-03T01:49:05.323Z,6.6769
2023-05-03T01:50:07.056Z,4.1385
2023-05-03T01:51:08.758Z,5.5692
2023-05-03T01:52:10.478Z,8.6000
2023-05-03T01:53:12.213Z,13.6462
2023-05-03T01:54:13.933Z,17.1538
2023-05-03T01:55:15.645Z,11.8615
2023-05-03T01:56:17.393Z,8.1231
2023-05-03T01:57:19.116Z,7.5846
2023-05-03T01:58:20.821Z,9.6923
2023-05-03T01:59:22.540Z,13.7077
2023-05-03T02:00:24.253Z,17.6769
2023-05-03T02:01:26.034Z,12.6000
2023-05-03T02:02:27.744Z,6.3231
2023-05-03T02:03:29.413Z,4.4154
2023-05-03T02:04:31.192Z,5.6769
2023-05-03T02:05:32.859Z,9.1846
2023-05-03T02:06:34.631Z,14.4000
2023-05-03T02:07:36.260Z,13.8615
2023-05-03T02:08:37.998Z,6.7077
2023-05-03T02:09:39.706Z,3.8308
2023-05-03T02:10:41.431Z,4.3333
2023-05-03T02:11:43.981Z,7.0333
2023-05-03T02:12:47.833Z,12.0833
2023-05-03T02:13:51.726Z,15.4333
2023-05-03T02:14:55.623Z,10.3167
2023-05-03T02:15:59.497Z,7.2000
2023-05-03T02:17:03.582Z,7.3000
2023-05-03T02:18:07.587Z,9.8833
2023-05-03T02:19:11.491Z,14.2667
2023-05-03T02:20:15.625Z,15.6500
2023-05-03T02:21:19.519Z,8.2000
2023-05-03T02:22:23.668Z,3.9667
2023-05-03T02:23:27.556Z,3.7000
2023-05-03T02:24:31.430Z,5.8167
2023-05-03T02:25:35.322Z,10.5333
2023-05-03T02:26:39.218Z,13.7000
2023-05-03T02:27:43.166Z,7.2167
2023-05-03T02:28:47.054Z,2.9333
2023-05-03T02:29:50.946Z,2.9333
2023-05-03T02:30:54.847Z,4.6500
2023-05-03T02:31:58.720Z,9.0667
2023-05-03T02:33:02.642Z,14.5833
2023-05-03T02:34:06.532Z,11.8667
2023-05-03T02:35:10.443Z,7.2000
2023-05-03T02:36:14.356Z,6.4667
2023-05-03T02:37:18.266Z,8.4000
2023-05-03T02:38:22.182Z,12.2667
2023-05-03T02:39:26.089Z,16.9000
2023-05-03T02:40:30.068Z,13.1167
2023-05-03T02:41:33.958Z,8.0167
2023-05-03T02:42:37.890Z,6.2000
2023-05-03T02:43:41.800Z,7.7833
2023-05-03T02:44:45.715Z,11.5833
2023-05-03T02:45:49.677Z,15.5667
2023-05-03T02:46:53.590Z,10.3000
2023-05-03T02:47:57.511Z,3.3500
2023-05-03T02:49:01.373Z,2.4500
2023-05-03T02:50:05.483Z,3.3667
2023-05-03T02:51:09.501Z,6.3500
2023-05-03T02:52:13.414Z,12.2667
2023-05-03T02:53:17.333Z,13.0833
2023-05-03T02:54:21.234Z,6.8333
2023-05-03T02:55:25.148Z,4.6333
2023-05-03T02:56:29.064Z,6.3667
2023-05-03T02:57:32.959Z,9.6167
2023-05-03T02:58:36.843Z,14.8167
2023-05-03T02:59:40.748Z,16.3667
2023-05-03T03:00:44.649Z,9.0333
2023-05-03T03:01:48.555Z,4.6167
2023-05-03T03:02:52.487Z,4.7833
2023-05-03T03:03:56.416Z,7.4833
2023-05-03T03:05:00.536Z,12.3833
2023-05-03T03:06:04.446Z,16.5500
2023-05-03T03:07:08.337Z,11.4167
2023-05-03T03:08:12.280Z,7.2167
2023-05-03T03:09:16.144Z,6.7000
2023-05-03T03:10:20.034Z,8.9333
2023-05-03T03:11:23.949Z,13.2500
2023-05-03T03:12:27.871Z,16.9500
2023-05-03T03:13:31.763Z,11.4000
2023-05-03T03:14:35.670Z,6.5667
2023-05-03T03:15:39.590Z,5.3000
2023-05-03T03:16:43.492Z,7.3167
2023-05-03T03:17:47.427Z,11.5333
2023-05-03T03:18:51.350Z,15.3333
2023-05-03T03:19:55.506Z,9.6833
2023-05-03T03:20:59.385Z,4.0167
2023-05-03T03:22:03.273Z,3.4000
2023-05-03T03:23:07.213Z,4.9167
2023-05-03T03:24:11.085Z,9.0833
2023-05-03T03:25:14.978Z,14.1833
2023-05-03T03:26:18.854Z,10.8833
2023-05-03T03:27:22.743Z,4.5000
2023-05-03T03:28:26.659Z,3.4167
2023-05-03T03:29:30.523Z,4.8833
2023-05-03T03:30:34.492Z,8.6333
2023-05-03T03:31:38.494Z,14.1667
2023-05-03T03:32:42.467Z,13.9000
2023-05-03T03:33:46.368Z,7.7667
2023-05-03T03:34:50.529Z,5.5833
2023-05-03T03:35:54.443Z,6.7333
2023-05-03T03:36:58.343Z,10.0500
2023-05-03T03:38:02.246Z,15.0000
2023-05-03T03:39:06.172Z,14.5500
2023-05-03T03:40:10.409Z,8.2167
2023-05-03T03:41:14.314Z,5.5000
2023-05-03T03:42:19.194Z,6.2000
2023-05-03T03:43:18.972Z,9.3455
2023-05-03T03:44:22.872Z,14.0167
2023-05-03T03:45:26.756Z,13.7833
2023-05-03T03:46:30.764Z,7.2000
2023-05-03T03:47:34.707Z,4.4333
2023-05-03T03:48:38.567Z,4.9500
2023-05-03T03:49:42.467Z,8.0167
2023-05-03T03:50:46.355Z,12.8333
2023-05-03T03:51:50.226Z,12.4500
2023-05-03T03:52:54.127Z,5.1000
2023-05-03T03:53:58.014Z,2.9167
2023-05-03T03:55:01.911Z,3.4333
2023-05-03T03:56:05.805Z,5.8167
2023-05-03T03:57:09.989Z,11.0167
2023-05-03T03:58:13.919Z,13.1667
2023-05-03T03:59:17.808Z,7.9333
2023-05-03T04:00:21.746Z,5.7000
2023-05-03T04:01:25.649Z,6.6667
2023-05-03T04:02:29.638Z,9.6333
2023-05-03T04:03:33.736Z,14.2667
2023-05-03T04:04:37.861Z,14.1333
2023-05-03T04:05:41.965Z,5.7167
2023-05-03T04:06:45.948Z,2.5667
2023-05-03T04:07:49.840Z,2.8000
2023-05-03T04:08:53.735Z,4.5167
2023-05-03T04:09:58.149Z,9.4667
2023-05-03T04:11:02.044Z,14.2667
2023-05-03T04:12:05.949Z,9.4833
2023-05-03T04:13:10.101Z,4.3333
2023-05-03T04:14:13.999Z,4.4167
2023-05-03T04:15:17.909Z,6.9167
2023-05-03T04:16:21.858Z,11.3667
2023-05-03T04:17:25.804Z,16.8000
2023-05-03T04:18:29.689Z,14.1333
2023-05-03T04:19:33.598Z,9.3667
2023-05-03T04:20:37.494Z,8.0333
2023-05-03T04:21:41.404Z,9.7667
2023-05-03T04:22:45.301Z,13.4667
2023-05-03T04:23:49.208Z,17.8167
2023-05-03T04:24:53.144Z,13.3333
2023-05-03T04:25:57.053Z,5.9000
2023-05-03T04:27:00.944Z,3.7833
2023-05-03T04:28:04.834Z,4.7500
2023-05-03T04:29:08.740Z,8.3167
2023-05-03T04:30:12.613Z,13.7333
2023-05-03T04:31:16.641Z,12.9833
2023-05-03T04:32:20.848Z,7.9167
2023-05-03T04:33:24.732Z,6.3667
2023-05-03T04:34:28.624Z,7.8000
2023-05-03T04:35:32.513Z,11.3000
2023-05-03T04:36:36.392Z,15.8500
2023-05-03T04:37:40.290Z,12.8333
2023-05-03T04:38:44.180Z,5.0000
2023-05-03T04:39:48.068Z,3.0000
2023-05-03T04:40:51.952Z,3.6833
2023-05-03T04:41:55.866Z,6.5500
2023-05-03T04:42:59.777Z,12.0667
2023-05-03T04:44:03.752Z,13.2333
2023-05-03T04:45:07.770Z,7.3167
2023-05-03T04:46:11.711Z,5.0500
2023-05-03T04:47:15.687Z,6.2000
2023-05-03T04:48:19.608Z,9.2500
2023-05-03T04:49:23.510Z,14.1500
2023-05-03T04:50:27.418Z,14.4167
2023-05-03T04:51:31.315Z,7.0333
2023-05-03T04:52:35.253Z,3.8000
2023-05-03T04:53:39.126Z,4.2333
2023-05-03T04:54:43.017Z,7.0000
2023-05-03T04:55:46.906Z,12.0500
2023-05-03T04:56:50.824Z,14.2500
2023-05-03T04:57:55.510Z,7.2333
2023-05-03T04:58:59.414Z,3.4500
2023-05-03T05:00:03.573Z,3.8167
2023-05-03T05:01:07.707Z,6.3000
2023-05-03T05:02:11.661Z,11.2333
2023-05-03T05:03:15.666Z,15.5833
2023-05-03T05:04:19.565Z,10.2667
2023-05-03T05:05:23.534Z,4.9167
2023-05-03T05:06:27.526Z,4.5167
2023-05-03T05:07:31.387Z,6.8500
2023-05-03T05:08:35.268Z,11.1833
2023-05-03T05:09:39.154Z,16.4000
2023-05-03T05:10:43.051Z,12.9167
2023-05-03T05:11:46.934Z,5.8667
2023-05-03T05:12:51.172Z,4.0167
2023-05-03T05:13:55.080Z,5.7000
2023-05-03T05:14:59.210Z,9.4667
2023-05-03T05:16:03.099Z,15.1167
2023-05-03T05:17:07.115Z,15.6333
2023-05-03T05:18:11.014Z,9.4333
2023-05-03T05:19:14.889Z,6.8667
2023-05-03T05:20:19.124Z,7.6667
2023-05-03T05:21:23.058Z,10.9000
2023-05-03T05:22:26.973Z,15.8167
2023-05-03T05:23:30.882Z,16.3333
2023-05-03T05:24:34.825Z,8.5000
2023-05-03T05:25:38.727Z,4.2000
2023-05-03T05:26:42.605Z,4.2667
2023-05-03T05:27:46.491Z,6.9167
2023-05-03T05:28:50.375Z,11.9333
2023-05-03T05:29:54.265Z,15.7833
2023-05-03T05:30:58.149Z,10.0500
2023-05-03T05:32:02.196Z,5.0667
2023-05-03T05:33:06.343Z,4.7667
2023-05-03T05:34:10.302Z,7.1333
2023-05-03T05:35:14.430Z,11.6333
2023-05-03T05:36:18.318Z,16.5167
2023-05-03T05:37:22.204Z,12.9500
2023-05-03T05:38:26.107Z,9.4000
2023-05-03T05:39:29.992Z,9.1167
2023-05-03T05:40:33.868Z,11.2500
2023-05-03T05:41:37.747Z,15.0500
2023-05-03T05:42:41.655Z,17.2667
2023-05-03T05:43:45.577Z,9.7667
2023-05-03T05:44:49.471Z,4.0667
2023-05-03T05:45:53.578Z,3.1333
2023-05-03T05:46:57.506Z,4.2167
2023-05-03T05:48:01.562Z,8.3167
2023-05-03T05:49:05.476Z,12.7500
2023-05-03T05:50:16.746Z,8.2000
2023-05-03T05:51:13.851Z,3.9636
2023-05-03T05:52:17.756Z,3.8833
2023-05-03T05:53:21.624Z,5.8667
2023-05-03T05:54:25.520Z,10.1000
2023-05-03T05:55:29.397Z,14.2167
2023-05-03T05:56:33.291Z,8.8500
2023-05-03T05:57:37.174Z,3.1333
2023-05-03T05:58:41.059Z,2.6833
2023-05-03T05:59:44.935Z,3.7667
2023-05-03T06:00:48.845Z,7.3500
2023-05-03T06:01:52.791Z,13.1167
2023-05-03T06:02:56.701Z,12.2000
2023-05-03T06:04:00.588Z,6.0333
2023-05-03T06:05:06.959Z,4.3667
2023-05-03T06:06:06.271Z,6.0909
2023-05-03T06:07:10.152Z,9.4333
2023-05-03T06:08:14.297Z,14.6833
2023-05-03T06:10:22.754Z,7.2909
2023-05-03T06:11:26.657Z,4.1500
2023-05-03T06:12:30.564Z,4.8833
2023-05-03T06:13:34.480Z,7.8667
2023-05-03T06:14:40.638Z,13.0167
2023-05-03T06:15:42.876Z,15.9455
2023-05-03T06:16:46.798Z,9.4667
2023-05-03T06:17:50.753Z,4.7000
2023-05-03T06:18:54.595Z,4.6833
2023-05-03T06:19:58.734Z,7.2167
2023-05-03T06:21:02.631Z,11.9667
2023-05-03T06:22:06.542Z,16.6667
2023-05-03T06:23:10.517Z,11.9667
2023-05-03T06:24:14.414Z,6.3000
2023-05-03T06:25:18.388Z,5.1500
2023-05-03T06:26:22.240Z,7.1000
2023-05-03T06:27:26.147Z,11.2833
2023-05-03T06:28:30.048Z,16.4333
2023-05-03T06:29:33.928Z,13.3500
2023-05-03T06:30:38.083Z,6.6167
2023-05-03T06:31:42.070Z,4.5667
2023-05-03T06:32:46.064Z,5.9833
2023-05-03T06:33:49.945Z,9.7000
2023-05-03T06:34:53.860Z,15.1167
2023-05-03T06:35:57.747Z,14.5333
2023-05-03T06:37:01.735Z,8.2333
2023-05-03T06:38:05.581Z,5.7833
2023-05-03T06:39:09.512Z,6.6167
2023-05-03T06:40:13.640Z,9.8833
2023-05-03T06:41:17.525Z,14.7833
2023-05-03T06:42:22.947Z,14.1667
2023-05-03T06:43:26.862Z,7.7833
2023-05-03T06:44:30.765Z,5.1333
2023-05-03T06:45:34.687Z,5.9667
2023-05-03T06:46:38.773Z,9.1833
2023-05-03T06:48:46.625Z,12.5500
2023-05-03T06:49:50.517Z,5.1000
2023-05-03T06:50:54.553Z,3.0333
2023-05-03T06:51:58.442Z,3.5000
2023-05-03T06:53:02.441Z,6.0500
2023-05-03T06:54:06.288Z,11.2833
2023-05-03T06:55:10.179Z,12.5500
2023-05-03T06:56:14.100Z,6.4167
2023-05-03T06:57:18.023Z,4.0333
2023-05-03T06:58:21.921Z,4.9333
2023-05-03T06:59:25.849Z,7.9667
2023-05-03T07:00:29.756Z,12.8500
2023-05-03T07:01:33.660Z,13.8667
2023-05-03T07:02:37.773Z,7.5333
2023-05-03T07:03:42.123Z,4.6167
2023-05-03T07:04:46.102Z,5.1500
2023-05-03T07:05:50.221Z,8.1500
2023-05-03T07:06:56.746Z,12.9000
2023-05-03T07:07:55.542Z,13.2364
2023-05-03T07:08:59.423Z,5.8833
2023-05-03T07:10:03.488Z,2.9000
2023-05-03T07:11:07.613Z,3.1833
2023-05-03T07:12:11.570Z,5.1667
2023-05-03T07:13:16.264Z,10.2167
2023-05-03T07:14:20.153Z,13.6667
2023-05-03T07:15:24.071Z,8.4667
2023-05-03T07:16:28.014Z,5.1500
2023-05-03T07:17:32.027Z,5.7500
2023-05-03T07:18:35.893Z,8.3333
2023-05-03T07:19:39.773Z,12.8667
2023-05-03T07:20:43.673Z,15.2667
2023-05-03T07:21:47.577Z,8.3333
2023-05-03T07:22:51.494Z,3.8167
2023-05-03T07:23:55.447Z,3.6333
2023-05-03T07:24:59.424Z,5.6333
2023-05-03T07:26:03.396Z,10.3167
2023-05-03T07:27:07.316Z,14.4500
2023-05-03T07:28:11.232Z,9.2333
2023-05-03T07:29:15.090Z,4.2833
2023-05-03T07:30:18.963Z,4.0000
2023-05-03T07:31:22.866Z,6.0667
2023-05-03T07:32:26.841Z,10.3833
2023-05-03T07:33:30.834Z,15.1833
2023-05-03T07:34:34.689Z,11.1500
2023-05-03T07:35:38.792Z,5.9500
2023-05-03T07:36:42.683Z,4.9000
2023-05-03T07:37:46.546Z,6.7667
2023-05-03T07:38:50.442Z,10.7000
2023-05-03T07:39:54.321Z,15.2667
2023-05-03T07:40:58.225Z,11.1333
2023-05-03T07:42:02.149Z,5.5167
2023-05-03T07:43:06.052Z,4.2500
2023-05-03T07:44:09.956Z,5.8167
2023-05-03T07:45:14.146Z,9.6667
2023-05-03T07:46:18.112Z,14.4167
2023-05-03T07:47:22.038Z,10.6667
2023-05-03T07:48:25.960Z,4.9667
2023-05-03T07:49:29.879Z,3.9167
2023-05-03T07:50:33.768Z,5.4167
2023-05-03T07:51:37.650Z,9.3000
2023-05-03T07:52:41.573Z,14.2167
2023-05-03T07:53:45.464Z,11.0000
2023-05-03T07:54:49.349Z,3.8333
2023-05-03T07:55:53.242Z,2.6000
2023-05-03T07:56:57.120Z,3.5500
2023-05-03T07:58:01.017Z,6.5333
2023-05-03T07:59:10.010Z,12.3167
2023-05-03T08:00:09.419Z,14.6364
2023-05-03T08:01:13.311Z,10.2833
2023-05-03T08:02:17.600Z,8.7667
2023-05-03T08:03:21.710Z,9.9833
2023-05-03T08:04:26.070Z,13.0833
2023-05-03T08:05:30.415Z,17.4833
2023-05-03T08:06:34.333Z,15.7833
2023-05-03T08:07:38.212Z,6.9500
2023-05-03T08:08:42.106Z,3.3333
2023-05-03T08:09:45.982Z,3.4667
2023-05-03T08:10:49.878Z,5.7833
2023-05-03T08:11:53.760Z,10.9500
2023-05-03T08:12:57.653Z,14.0000
2023-05-03T08:14:01.558Z,9.0500
2023-05-03T08:15:05.453Z,6.7167
2023-05-03T08:16:09.373Z,7.5333
2023-05-03T08:17:13.257Z,10.3000
2023-05-03T08:18:17.658Z,14.7500
2023-05-03T08:19:21.528Z,15.4333
2023-05-03T08:20:25.443Z,8.3500
2023-05-03T08:21:29.317Z,4.6167
2023-05-03T08:22:33.199Z,4.4667
2023-05-03T08:23:37.094Z,7.0167
2023-05-03T08:24:40.977Z,11.7500
2023-05-03T08:25:44.855Z,13.1167
2023-05-03T08:26:48.740Z,6.4500
2023-05-03T08:27:52.646Z,3.6167
2023-05-03T08:28:56.532Z,3.9667
2023-05-03T08:30:00.461Z,6.4500
2023-05-03T08:31:04.386Z,11.2667
2023-05-03T08:32:08.282Z,13.2167
2023-05-03T08:33:12.426Z,6.3333
2023-05-03T08:34:16.309Z,3.1833
2023-05-03T08:35:16.736Z,3.4727
2023-05-03T08:36:20.647Z,5.4833
2023-05-03T08:37:24.536Z,10.2167
2023-05-03T08:38:28.449Z,14.0833
2023-05-03T08:39:32.365Z,8.4000
2023-05-03T08:40:36.285Z,3.4833
2023-05-03T08:41:40.194Z,3.4333
2023-05-03T08:42:44.082Z,5.4667
2023-05-03T08:43:47.970Z,9.8833
2023-05-03T08:44:51.863Z,15.2833
2023-05-03T08:45:55.756Z,12.2667
2023-05-03T08:46:59.664Z,6.6167
2023-05-03T08:48:03.676Z,5.4167
2023-05-03T08:49:07.567Z,7.2667
2023-05-03T08:50:11.618Z,8.5500
2023-05-03T08:51:15.488Z,3.4167
2023-05-03T08:52:19.370Z,2.0333
2023-05-03T08:53:23.273Z,1.5500
2023-05-03T08:54:27.167Z,1.4000
2023-05-03T08:55:31.048Z,1.4000
2023-05-03T08:56:34.935Z,1.4000
2023-05-03T08:57:38.822Z,1.4000
2023-05-03T08:58:42.712Z,1.5667
2023-05-03T08:59:46.632Z,1.7833
2023-05-03T09:00:50.523Z,1.9500
2023-05-03T09:01:55.055Z,2.0000
2023-05-03T09:02:59.169Z,2.0000
2023-05-03T09:04:03.143Z,2.0000
2023-05-03T09:05:07.089Z,2.0000
2023-05-03T09:06:11.044Z,1.9333
2023-05-03T09:07:15.020Z,1.8000
2023-05-03T09:08:18.891Z,1.8000
2023-05-03T09:09:22.770Z,1.8000
2023-05-03T09:10:26.678Z,1.8000
2023-05-03T09:11:30.591Z,1.6167
2023-05-03T09:12:34.549Z,1.6000
2023-05-03T09:13:38.440Z,1.6000
2023-05-03T09:14:42.328Z,1.6000
2023-05-03T09:15:46.216Z,1.6000
2023-05-03T09:16:50.303Z,1.4333
2023-05-03T09:17:54.177Z,1.4000
2023-05-03T09:18:58.047Z,1.4000
2023-05-03T09:20:02.548Z,1.4000
2023-05-03T09:21:06.611Z,1.4000
2023-05-03T09:22:10.576Z,1.4000
2023-05-03T09:23:14.550Z,1.3500
2023-05-03T09:24:18.451Z,1.1167
2023-05-03T09:25:22.371Z,1.0000
2023-05-03T09:26:26.278Z,1.0000
2023-05-03T09:27:30.190Z,1.3667
2023-05-03T09:28:34.192Z,2.0667
2023-05-03T09:29:38.057Z,4.6333
2023-05-03T09:30:41.932Z,12.1167
2023-05-03T09:31:45.834Z,18.9333
2023-05-03T09:32:49.801Z,14.1500
2023-05-03T09:33:53.679Z,10.9833
2023-05-03T09:34:57.808Z,12.2500
2023-05-03T09:36:01.691Z,14.9333
2023-05-03T09:37:05.592Z,19.4833
2023-05-03T09:38:09.492Z,22.1000
2023-05-03T09:39:13.403Z,12.8000
2023-05-03T09:40:17.317Z,4.0333
2023-05-03T09:41:21.221Z,1.6833
2023-05-03T09:42:25.136Z,1.1667
2023-05-03T09:43:29.050Z,1.0000
2023-05-03T09:44:32.953Z,0.9000
2023-05-03T09:45:36.903Z,0.8000
2023-05-03T09:46:40.801Z,0.8000
2023-05-03T09:47:44.741Z,0.8000
2023-05-03T09:48:48.625Z,0.8500
2023-05-03T09:49:52.548Z,1.0000
2023-05-03T09:50:56.455Z,1.0000
2023-05-03T09:52:00.293Z,1.0000
2023-05-03T09:53:04.184Z,1.0000
2023-05-03T09:54:08.140Z,1.0000
2023-05-03T09:55:12.003Z,0.8833
2023-05-03T09:56:15.898Z,0.8000
2023-05-03T09:57:19.832Z,0.8333
2023-05-03T09:58:23.738Z,1.2500
2023-05-03T09:59:27.707Z,1.8000
2023-05-03T10:00:31.686Z,3.9333
2023-05-03T10:01:35.617Z,11.5000
2023-05-03T10:02:39.590Z,19.0000
2023-05-03T10:03:43.499Z,25.5167
2023-05-03T10:04:47.390Z,32.3000
2023-05-03T10:05:51.300Z,39.0500
2023-05-03T10:06:55.413Z,45.8667
2023-05-03T10:07:59.304Z,48.3000
2023-05-03T10:09:03.211Z,33.8500
2023-05-03T10:10:07.123Z,16.9833
2023-05-03T10:11:11.025Z,5.1333
2023-05-03T10:12:14.956Z,1.5667
2023-05-03T10:13:18.841Z,1.0833
2023-05-03T10:14:22.743Z,1.0000
2023-05-03T10:15:26.628Z,0.8000
2023-05-03T10:16:30.491Z,0.8000
2023-05-03T10:18:35.898Z,0.8000
2023-05-03T10:19:39.799Z,0.8000
2023-05-03T10:20:43.900Z,0.9833
2023-05-03T10:21:47.783Z,1.0000
2023-05-03T10:22:51.699Z,1.0000
2023-05-03T10:23:55.591Z,1.0000
2023-05-03T10:24:59.501Z,0.9833
2023-05-03T10:26:03.686Z,0.9667
2023-05-03T10:27:07.726Z,0.9000
2023-05-03T10:28:11.610Z,0.8000
2023-05-03T10:29:15.488Z,0.9667
2023-05-03T10:30:19.378Z,1.4833
2023-05-03T10:31:23.281Z,2.4500
2023-05-03T10:32:27.376Z,7.7167
2023-05-03T10:33:31.206Z,16.6333
2023-05-03T10:34:35.101Z,18.5667
2023-05-03T10:35:39.010Z,18.6833
2023-05-03T10:36:49.302Z,20.1833
2023-05-03T10:37:47.383Z,23.0545
2023-05-03T10:38:51.326Z,27.3667
2023-05-03T10:39:55.202Z,29.8667
2023-05-03T10:40:59.084Z,18.8667
2023-05-03T10:42:02.993Z,6.3333
2023-05-03T10:43:06.875Z,1.6667
2023-05-03T10:44:10.750Z,1.0500
2023-05-03T10:45:14.894Z,0.8167
2023-05-03T10:46:18.830Z,0.8000
2023-05-03T10:47:22.988Z,0.8000
2023-05-03T10:48:26.899Z,0.8000
2023-05-03T10:49:30.790Z,0.8000
2023-05-03T10:50:34.680Z,0.8000
2023-05-03T10:51:38.590Z,0.8000
2023-05-03T10:52:42.477Z,0.8000
2023-05-03T10:53:46.368Z,0.8000
2023-05-03T10:54:50.240Z,0.8000
2023-05-03T10:55:54.125Z,0.8000
2023-05-03T10:56:58.058Z,0.8000
2023-05-03T10:58:01.977Z,0.8000
2023-05-03T10:59:05.808Z,0.8167
2023-05-03T11:00:09.703Z,1.2667
2023-05-03T11:01:13.627Z,2.0167
2023-05-03T11:02:17.767Z,6.0833
2023-05-03T11:03:21.769Z,15.7667
2023-05-03T11:04:25.748Z,20.8667
2023-05-03T11:05:29.631Z,20.6167
2023-05-03T11:06:33.594Z,21.9000
2023-05-03T11:07:37.473Z,24.3000
2023-05-03T11:08:41.778Z,28.4167
2023-05-03T11:09:47.480Z,33.1167
2023-05-03T11:10:46.191Z,26.9818
2023-05-03T11:11:50.098Z,14.2000
2023-05-03T11:12:54.034Z,3.4833
2023-05-03T11:13:58.091Z,1.3167
2023-05-03T11:15:02.374Z,0.9333
2023-05-03T11:16:06.495Z,0.8000
2023-05-03T11:17:10.421Z,0.8000
2023-05-03T11:18:14.368Z,0.8000
2023-05-03T11:19:18.271Z,0.8000
2023-05-03T11:20:22.176Z,0.8000
2023-05-03T11:21:26.071Z,0.8000
2023-05-03T11:22:29.962Z,0.8000
2023-05-03T11:23:33.844Z,0.8000
2023-05-03T11:24:37.838Z,0.8000
2023-05-03T11:25:41.725Z,0.8000
2023-05-03T11:26:45.647Z,0.8000
2023-05-03T11:27:49.545Z,0.8000
2023-05-03T11:28:53.401Z,0.8000
2023-05-03T11:29:57.293Z,0.8000
2023-05-03T11:31:01.183Z,0.8167
2023-05-03T11:32:05.128Z,1.2333
2023-05-03T11:33:09.112Z,1.8500
2023-05-03T11:34:13.280Z,4.9500
2023-05-03T11:35:17.228Z,13.9000
2023-05-03T11:36:21.355Z,19.2833
2023-05-03T11:37:25.274Z,18.9167
2023-05-03T11:38:29.200Z,20.0167
2023-05-03T11:39:33.386Z,22.2000
2023-05-03T11:40:37.353Z,26.0500
2023-05-03T11:41:41.237Z,30.7500
2023-05-03T11:42:45.233Z,24.8833
2023-05-03T11:43:55.074Z,12.7667
2023-05-03T11:44:53.646Z,4.4364
2023-05-03T11:45:57.788Z,2.4500
2023-05-03T11:47:02.221Z,3.3167
2023-05-03T11:48:06.328Z,7.8500
2023-05-03T11:49:10.207Z,9.1500
2023-05-03T11:50:14.115Z,3.2667
2023-05-03T11:51:18.066Z,2.0167
2023-05-03T11:52:22.010Z,1.8167
2023-05-03T11:53:26.016Z,1.1500
2023-05-03T11:54:30.101Z,0.8500
2023-05-03T11:55:33.985Z,0.7167
2023-05-03T11:56:38.116Z,0.6000
2023-05-03T11:57:41.990Z,0.6000
2023-05-03T11:58:45.877Z,0.6000
2023-05-03T11:59:49.842Z,0.6000
2023-05-03T12:00:53.801Z,0.6000
2023-05-03T12:01:57.711Z,0.7833
2023-05-03T12:03:01.808Z,0.8000
2023-05-03T12:04:06.083Z,0.8000
2023-05-03T12:05:10.845Z,0.8000
2023-05-03T12:06:16.146Z,0.8000
2023-05-03T12:07:22.765Z,0.8000
2023-05-03T12:08:22.850Z,0.8000
2023-05-03T12:09:23.613Z,0.8000
2023-05-03T12:10:26.156Z,0.8000
2023-05-03T12:11:27.144Z,0.8000
2023-05-03T12:12:30.841Z,0.8000
2023-05-03T12:13:34.056Z,0.8000
2023-05-03T12:14:33.664Z,0.8000
2023-05-03T12:15:37.824Z,0.8000
2023-05-03T12:16:41.963Z,0.8000
2023-05-03T12:17:47.625Z,0.8000
2023-05-03T12:18:48.555Z,0.8000
2023-05-03T12:19:54.350Z,0.8000
2023-05-03T12:21:30.209Z,0.8000
2023-05-03T12:22:18.122Z,0.8000
2023-05-03T12:23:03.925Z,0.8000
2023-05-03T12:24:04.834Z,0.8000
2023-05-03T12:25:05.127Z,0.8000
2023-05-03T12:26:09.990Z,0.8000
2023-05-03T12:27:14.463Z,0.8000
2023-05-03T12:28:20.464Z,0.8000
2023-05-03T12:29:19.665Z,0.8000
2023-05-03T12:30:23.828Z,0.8000
2023-05-03T12:31:29.333Z,0.8000
2023-05-03T12:32:28.128Z,0.6364
2023-05-03T12:33:33.571Z,0.6000
2023-05-03T12:34:34.689Z,0.6000
2023-05-03T12:35:34.513Z,0.6909
2023-05-03T12:36:38.915Z,1.0167
2023-05-03T12:37:43.846Z,1.4167
2023-05-03T12:38:50.492Z,2.9333
2023-05-03T12:40:00.987Z,10.5455
2023-05-03T12:40:53.902Z,16.4000
2023-05-03T12:42:59.362Z,22.3455
2023-05-03T12:44:03.433Z,26.2500
2023-05-03T12:45:07.671Z,31.4667
2023-05-03T12:47:15.858Z,26.5818
2023-05-03T12:48:16.726Z,11.9091
2023-05-03T12:50:25.112Z,1.8167
2023-05-03T12:51:32.918Z,2.2167
2023-05-03T12:52:37.705Z,4.6727
2023-05-03T12:53:38.849Z,8.3273
2023-05-03T12:54:41.464Z,3.3455
2023-05-03T12:55:43.908Z,2.0000
2023-05-03T12:56:47.468Z,1.8000
2023-05-03T12:57:55.914Z,2.2364
2023-05-03T12:59:20.418Z,4.7091
2023-05-03T13:00:02.145Z,9.7818
2023-05-03T13:03:09.691Z,1.6545
2023-05-03T13:04:42.338Z,1.4727
2023-05-03T13:05:23.998Z,2.0909
2023-05-03T13:06:17.630Z,5.5273
2023-05-03T13:07:28.229Z,6.7833
2023-05-03T13:08:33.557Z,2.2000
2023-05-03T13:10:12.306Z,1.1818
2023-05-03T13:10:35.397Z,0.8545
2023-05-03T13:11:39.340Z,0.7667
2023-05-03T13:12:43.276Z,0.6000